Time;durP1;ratioP1;P1;durP2;ratioP2;P2;SDS_P1;SDS_P2;PMS_P1;PMS_P2;Temp;Humidity;BMP_temperature;BMP_pressure;BME280_temperature;BME280_humidity;BME280_pressure;Samples;Min_cycle;Max_cycle;Signal;HPM_P1;HPM_P2
2021/01/12 00:02:03;;;;;;;42.93;18.67;;;-4.70;95.30;;;;;;5022243;28;20190;-62
2021/01/12 00:04:31;;;;;;;46.20;18.30;;;-4.70;95.40;;;;;;5017157;28;20201;-63
2021/01/12 00:06:57;;;;;;;49.72;18.10;;;-4.70;95.40;;;;;;5012079;28;20199;-63
2021/01/12 00:09:22;;;;;;;50.43;18.23;;;-4.60;95.20;;;;;;5016375;28;20177;-63
2021/01/12 00:11:51;;;;;;;44.22;19.38;;;-4.60;95.10;;;;;;5010430;28;20208;-63
2021/01/12 00:14:32;;;;;;;42.10;17.02;;;-4.60;95.00;;;;;;5012713;28;20681;-63
2021/01/12 00:16:59;;;;;;;42.03;18.30;;;-4.60;95.00;;;;;;4994865;28;20610;-63
2021/01/12 00:19:25;;;;;;;45.95;18.80;;;-4.60;94.90;;;;;;5011492;28;20197;-63
2021/01/12 00:21:50;;;;;;;41.37;18.20;;;-4.60;94.70;;;;;;5016375;28;20337;-63
2021/01/12 00:24:16;;;;;;;55.80;20.67;;;-4.60;94.80;;;;;;5008983;28;20209;-63
2021/01/12 00:26:42;;;;;;;39.87;19.33;;;-4.70;94.90;;;;;;5017198;28;20169;-63
2021/01/12 00:29:07;;;;;;;53.30;19.30;;;-4.70;95.00;;;;;;5011224;28;21109;-62
2021/01/12 00:31:38;;;;;;;42.70;17.90;;;-4.70;95.00;;;;;;5007719;28;20211;-63
2021/01/12 00:34:04;;;;;;;43.63;18.70;;;-4.70;95.00;;;;;;5017828;28;20192;-62
2021/01/12 00:36:30;;;;;;;42.90;18.07;;;-4.70;95.00;;;;;;5015172;28;20200;-63
2021/01/12 00:38:57;;;;;;;40.63;17.63;;;-4.70;95.10;;;;;;5014471;28;20197;-63
2021/01/12 00:41:22;;;;;;;45.70;19.25;;;-4.70;95.10;;;;;;5014475;28;20204;-63
2021/01/12 00:43:48;;;;;;;43.10;17.93;;;-4.70;94.90;;;;;;5011993;28;20188;-63
2021/01/12 00:46:13;;;;;;;47.30;20.10;;;-4.60;95.00;;;;;;5011724;28;20207;-63
2021/01/12 00:48:39;;;;;;;40.20;18.70;;;-4.70;94.70;;;;;;5009079;28;20189;-62
2021/01/12 00:51:05;;;;;;;44.13;18.73;;;-4.70;95.00;;;;;;5013350;28;20195;-63
2021/01/12 00:53:30;;;;;;;47.73;19.23;;;-4.80;95.00;;;;;;5022520;28;20180;-63
2021/01/12 00:55:56;;;;;;;45.77;19.47;;;-4.80;95.20;;;;;;5010192;28;20192;-64
2021/01/12 00:58:21;;;;;;;44.10;18.00;;;-4.80;95.20;;;;;;5025124;28;20196;-63
2021/01/12 01:00:47;;;;;;;47.57;20.57;;;-4.80;95.00;;;;;;5030492;28;20208;-63
2021/01/12 01:03:13;;;;;;;44.70;19.93;;;-4.80;95.20;;;;;;5009532;28;20193;-63
2021/01/12 01:05:38;;;;;;;44.73;17.63;;;-4.80;95.30;;;;;;4995451;28;20266;-64
2021/01/12 01:08:04;;;;;;;46.40;19.83;;;-4.70;95.30;;;;;;5010521;28;20528;-63
2021/01/12 01:10:30;;;;;;;46.80;19.23;;;-4.70;95.20;;;;;;5027133;28;20240;-63
2021/01/12 01:12:56;;;;;;;44.03;18.17;;;-4.70;95.20;;;;;;5014523;28;20669;-63
2021/01/12 01:15:21;;;;;;;39.93;19.00;;;-4.70;95.20;;;;;;5003177;28;20180;-62
2021/01/12 01:17:47;;;;;;;40.70;19.00;;;-4.70;95.20;;;;;;5012002;28;20187;-63
2021/01/12 01:20:13;;;;;;;45.67;19.37;;;-4.70;95.30;;;;;;5010078;28;20640;-63
2021/01/12 01:22:39;;;;;;;49.40;18.25;;;-4.70;95.40;;;;;;5009552;28;20196;-63
2021/01/12 01:25:06;;;;;;;48.10;19.87;;;-4.60;95.40;;;;;;5014968;28;20218;-63
2021/01/12 01:27:34;;;;;;;45.55;19.45;;;-4.60;95.60;;;;;;5010125;28;20674;-63
2021/01/12 01:30:00;;;;;;;41.22;17.73;;;-4.60;95.30;;;;;;5010899;28;20212;-63
2021/01/12 01:32:26;;;;;;;38.90;15.93;;;-4.50;95.50;;;;;;5017632;28;20203;-64
2021/01/12 01:34:51;;;;;;;36.70;16.97;;;-4.50;95.10;;;;;;5026498;28;20430;-63
2021/01/12 01:37:17;;;;;;;42.70;16.77;;;-4.50;94.60;;;;;;5014457;28;20222;-63
2021/01/12 01:39:43;;;;;;;38.10;16.20;;;-4.60;94.30;;;;;;5015679;28;20545;-63
2021/01/12 01:42:08;;;;;;;36.53;15.67;;;-4.70;94.50;;;;;;5007123;28;20982;-63
2021/01/12 01:44:34;;;;;;;31.53;14.93;;;-4.70;94.60;;;;;;5013355;28;20749;-63
2021/01/12 01:47:00;;;;;;;31.73;14.03;;;-4.80;94.60;;;;;;5009906;28;20263;-63
2021/01/12 01:49:27;;;;;;;34.83;15.87;;;-4.80;94.70;;;;;;4997865;28;20196;-63
2021/01/12 01:51:53;;;;;;;39.47;15.70;;;-4.90;94.70;;;;;;5017380;28;20192;-63
2021/01/12 01:54:19;;;;;;;36.67;15.27;;;-4.90;94.90;;;;;;5024391;28;20176;-63
2021/01/12 01:56:44;;;;;;;38.00;15.83;;;-5.00;95.10;;;;;;5005560;28;20500;-63
2021/01/12 01:59:10;;;;;;;35.90;15.80;;;-5.00;95.40;;;;;;5010352;28;20219;-63
2021/01/12 02:01:36;;;;;;;42.03;16.53;;;-5.00;95.00;;;;;;5010688;28;20275;-63
2021/01/12 02:04:20;;;;;;;39.45;15.65;;;-5.00;94.80;;;;;;5014846;28;20607;-64
2021/01/12 02:06:50;;;;;;;40.70;16.35;;;-5.10;94.70;;;;;;4994530;28;20243;-63
2021/01/12 02:09:33;;;;;;;39.55;16.13;;;-5.10;94.70;;;;;;5029136;28;20246;-63
2021/01/12 02:12:03;;;;;;;36.67;15.65;;;-5.10;94.80;;;;;;5006575;28;20200;-63
2021/01/12 02:14:37;;;;;;;45.03;17.88;;;-5.20;94.80;;;;;;5005040;28;20194;-63
2021/01/12 02:17:04;;;;;;;34.20;16.45;;;-5.20;95.00;;;;;;4998820;28;20543;-63
2021/01/12 02:19:30;;;;;;;40.67;16.25;;;-5.20;95.20;;;;;;5019035;28;20686;-63
2021/01/12 02:22:02;;;;;;;39.07;16.80;;;-5.20;95.40;;;;;;5007399;28;20208;-63
2021/01/12 02:24:29;;;;;;;43.05;17.50;;;-5.20;95.50;;;;;;5005161;28;20287;-63
2021/01/12 02:26:55;;;;;;;37.00;15.90;;;-5.10;95.60;;;;;;5009302;28;20188;-63
2021/01/12 02:29:21;;;;;;;42.53;16.80;;;-5.10;95.60;;;;;;5018109;28;20165;-62
2021/01/12 02:31:48;;;;;;;38.67;16.38;;;-5.10;95.60;;;;;;5007042;28;20212;-62
2021/01/12 02:34:16;;;;;;;42.33;18.00;;;-5.10;95.60;;;;;;5009079;28;20176;-63
2021/01/12 02:36:43;;;;;;;41.33;16.77;;;-5.10;95.60;;;;;;5009005;28;20185;-63
2021/01/12 02:39:12;;;;;;;37.40;16.52;;;-5.00;95.70;;;;;;5009954;28;20173;-65
2021/01/12 02:41:38;;;;;;;36.38;15.15;;;-5.00;95.60;;;;;;5011249;28;20713;-63
2021/01/12 02:44:03;;;;;;;38.23;16.60;;;-5.00;95.50;;;;;;5021951;28;20189;-63
2021/01/12 02:46:30;;;;;;;42.07;18.53;;;-5.00;95.50;;;;;;5023303;28;20610;-63
2021/01/12 02:48:57;;;;;;;42.83;18.23;;;-5.00;95.50;;;;;;5013551;28;20465;-64
2021/01/12 02:51:25;;;;;;;43.72;18.52;;;-5.00;95.60;;;;;;5012109;28;20198;-64
2021/01/12 02:53:51;;;;;;;46.88;20.23;;;-5.00;95.70;;;;;;5016095;28;20272;-64
2021/01/12 02:56:25;;;;;;;42.50;17.67;;;-5.00;95.70;;;;;;5009124;28;20749;-63
2021/01/12 02:58:51;;;;;;;45.45;18.48;;;-4.90;95.70;;;;;;5011679;28;20188;-64
2021/01/12 03:01:17;;;;;;;45.93;19.20;;;-4.90;95.80;;;;;;5011125;28;20204;-63
2021/01/12 03:03:43;;;;;;;43.23;18.30;;;-4.90;95.80;;;;;;5010749;28;20462;-63
2021/01/12 03:06:08;;;;;;;49.17;19.27;;;-4.90;95.80;;;;;;5010353;28;20776;-63
2021/01/12 03:08:35;;;;;;;44.53;17.27;;;-4.90;95.70;;;;;;5007175;28;20247;-63
2021/01/12 03:11:00;;;;;;;42.20;18.23;;;-4.80;95.80;;;;;;5006318;28;20209;-63
2021/01/12 03:13:26;;;;;;;45.70;18.40;;;-4.80;95.80;;;;;;5014178;28;20292;-63
2021/01/12 03:15:52;;;;;;;44.90;18.53;;;-4.80;95.80;;;;;;5016475;28;20181;-63
2021/01/12 03:18:18;;;;;;;41.97;18.42;;;-4.80;95.80;;;;;;5027423;28;20193;-63
2021/01/12 03:20:43;;;;;;;54.57;19.70;;;-4.80;95.80;;;;;;5014330;28;20205;-63
2021/01/12 03:23:09;;;;;;;43.20;18.87;;;-4.80;95.80;;;;;;5011385;28;20189;-63
2021/01/12 03:25:35;;;;;;;40.17;16.83;;;-4.80;95.80;;;;;;5005473;28;20553;-62
2021/01/12 03:28:00;;;;;;;44.37;18.07;;;-4.80;96.00;;;;;;5021718;28;20391;-63
2021/01/12 03:30:26;;;;;;;43.77;18.00;;;-4.80;96.10;;;;;;5023716;28;20204;-63
2021/01/12 03:32:52;;;;;;;49.50;18.17;;;-4.80;96.20;;;;;;5023443;28;20246;-64
2021/01/12 03:35:19;;;;;;;45.85;18.02;;;-4.70;96.20;;;;;;5025548;28;20212;-64
2021/01/12 03:37:45;;;;;;;46.25;19.45;;;-4.70;96.00;;;;;;5021670;28;20189;-63
2021/01/12 03:40:11;;;;;;;41.47;18.27;;;-4.70;95.90;;;;;;5007447;28;20272;-63
2021/01/12 03:42:37;;;;;;;44.70;18.23;;;-4.70;95.90;;;;;;5017004;28;20960;-64
2021/01/12 03:45:04;;;;;;;40.10;17.60;;;-4.70;96.00;;;;;;5024298;28;20448;-63
2021/01/12 03:47:30;;;;;;;38.53;18.70;;;-4.70;96.10;;;;;;5012443;28;20175;-63
2021/01/12 03:49:55;;;;;;;41.50;19.40;;;-4.70;96.10;;;;;;5019569;28;20664;-64
2021/01/12 03:52:21;;;;;;;43.00;17.03;;;-4.70;96.00;;;;;;5014436;28;20173;-64
2021/01/12 03:54:47;;;;;;;43.57;18.80;;;-4.70;96.10;;;;;;5015524;28;20651;-64
2021/01/12 03:57:12;;;;;;;39.50;18.87;;;-4.70;96.20;;;;;;5007844;28;20902;-64
2021/01/12 03:59:38;;;;;;;38.70;17.87;;;-4.70;96.20;;;;;;5022478;28;20609;-62
2021/01/12 04:02:04;;;;;;;42.70;19.10;;;-4.70;96.30;;;;;;5015948;28;20188;-64
2021/01/12 04:04:30;;;;;;;42.88;16.50;;;-4.60;96.30;;;;;;5011243;28;20705;-64
2021/01/12 04:06:55;;;;;;;39.37;17.60;;;-4.60;96.40;;;;;;5018964;28;20182;-64
2021/01/12 04:09:22;;;;;;;44.90;18.10;;;-4.60;96.40;;;;;;5010267;28;20193;-63
2021/01/12 04:11:48;;;;;;;41.20;16.55;;;-4.60;96.60;;;;;;5029240;28;20285;-63
2021/01/12 04:14:15;;;;;;;35.33;16.20;;;-4.60;96.70;;;;;;5022817;28;20216;-63
2021/01/12 04:16:41;;;;;;;42.88;16.80;;;-4.60;96.90;;;;;;5012017;28;20177;-63
2021/01/12 04:19:07;;;;;;;39.17;16.73;;;-4.50;97.00;;;;;;5014935;28;20180;-64
2021/01/12 04:21:33;;;;;;;40.83;16.90;;;-4.50;97.10;;;;;;5013237;28;20291;-64
2021/01/12 04:23:59;;;;;;;35.50;16.37;;;-4.50;97.10;;;;;;5013660;28;20279;-65
2021/01/12 04:26:25;;;;;;;50.03;17.10;;;-4.40;97.30;;;;;;5011295;28;20275;-64
2021/01/12 04:28:50;;;;;;;38.30;16.20;;;-4.40;97.30;;;;;;5011829;28;20452;-64
2021/01/12 04:31:16;;;;;;;43.20;16.60;;;-4.40;97.30;;;;;;5016583;28;20296;-64
2021/01/12 04:33:42;;;;;;;51.83;17.70;;;-4.30;97.40;;;;;;5009208;28;20587;-64
2021/01/12 04:36:08;;;;;;;40.40;16.90;;;-4.30;97.50;;;;;;4999322;28;20273;-64
2021/01/12 04:38:33;;;;;;;36.50;15.70;;;-4.30;97.50;;;;;;5015571;28;20276;-64
2021/01/12 04:40:59;;;;;;;34.20;15.57;;;-4.30;97.50;;;;;;5010141;28;20471;-64
2021/01/12 04:43:25;;;;;;;31.97;15.50;;;-4.20;97.60;;;;;;5012975;28;20197;-64
2021/01/12 04:45:51;;;;;;;34.13;15.40;;;-4.20;97.60;;;;;;5010429;28;20263;-64
2021/01/12 04:48:17;;;;;;;33.47;15.18;;;-4.20;97.70;;;;;;5005044;28;20203;-64
2021/01/12 04:50:43;;;;;;;33.73;16.20;;;-4.10;97.70;;;;;;5009559;28;20286;-63
2021/01/12 04:53:09;;;;;;;32.70;16.13;;;-4.10;97.80;;;;;;5014066;28;20244;-64
2021/01/12 04:55:34;;;;;;;45.15;17.70;;;-4.10;97.80;;;;;;5021582;28;20189;-63
2021/01/12 04:58:00;;;;;;;40.17;18.40;;;-4.10;97.80;;;;;;5013111;28;20203;-63
2021/01/12 05:00:32;;;;;;;35.53;16.10;;;-4.00;98.00;;;;;;5005247;28;20305;-64
2021/01/12 05:03:08;;;;;;;39.60;16.30;;;-4.00;98.00;;;;;;5002788;28;20185;-63
2021/01/12 05:05:38;;;;;;;43.15;16.75;;;-4.00;98.00;;;;;;5010722;28;20216;-64
2021/01/12 05:08:17;;;;;;;41.60;15.75;;;-3.90;98.00;;;;;;5011308;28;20205;-65
2021/01/12 05:10:49;;;;;;;42.88;16.45;;;-3.90;98.00;;;;;;5010744;28;20265;-64
2021/01/12 05:13:17;;;;;;;35.42;16.10;;;-3.90;98.10;;;;;;5014027;28;20583;-64
2021/01/12 05:15:47;;;;;;;39.92;16.90;;;-3.90;98.30;;;;;;5028057;28;20206;-64
2021/01/12 05:18:17;;;;;;;40.80;17.65;;;-3.90;98.50;;;;;;5010704;28;20247;-63
2021/01/12 05:20:44;;;;;;;48.22;16.52;;;-3.90;98.60;;;;;;5009443;28;20197;-63
2021/01/12 05:23:11;;;;;;;42.97;17.35;;;-3.80;98.70;;;;;;5015967;28;20205;-64
2021/01/12 05:25:39;;;;;;;36.97;15.38;;;-3.80;98.70;;;;;;5008186;28;20209;-64
2021/01/12 05:28:07;;;;;;;36.55;16.52;;;-3.70;98.80;;;;;;5020090;28;20177;-65
2021/01/12 05:30:33;;;;;;;38.55;16.23;;;-3.70;98.80;;;;;;5012632;28;20188;-64
2021/01/12 05:33:01;;;;;;;41.13;17.00;;;-3.70;98.90;;;;;;5016472;28;20683;-64
2021/01/12 05:35:31;;;;;;;31.40;14.80;;;-3.60;99.10;;;;;;5017026;28;20189;-64
2021/01/12 05:38:06;;;;;;;29.92;13.55;;;-3.60;99.20;;;;;;5021797;28;21197;-64
2021/01/12 05:40:41;;;;;;;35.83;15.27;;;-3.50;99.40;;;;;;5019275;28;20299;-64
2021/01/12 05:43:12;;;;;;;35.03;15.10;;;-3.40;99.60;;;;;;5012704;28;20468;-63
2021/01/12 05:45:40;;;;;;;34.93;14.50;;;-3.40;99.70;;;;;;5011179;28;20452;-63
2021/01/12 05:48:07;;;;;;;37.50;15.93;;;-3.30;99.90;;;;;;5011701;28;20424;-64
2021/01/12 05:50:34;;;;;;;39.23;18.40;;;-3.30;99.80;;;;;;5006549;28;20582;-64
2021/01/12 05:53:06;;;;;;;39.73;16.33;;;-3.30;99.80;;;;;;5000392;28;20448;-64
2021/01/12 05:55:38;;;;;;;38.57;16.50;;;-3.20;99.70;;;;;;5002837;28;20424;-65
2021/01/12 05:58:18;;;;;;;44.10;17.43;;;-3.20;99.70;;;;;;5000623;28;21289;-64
2021/01/12 06:00:47;;;;;;;38.70;14.83;;;-3.20;99.60;;;;;;5002077;28;20465;-64
2021/01/12 06:03:16;;;;;;;38.85;16.60;;;-3.20;99.60;;;;;;5006900;28;20500;-65
2021/01/12 06:05:46;;;;;;;37.33;16.70;;;-3.20;99.60;;;;;;5004862;28;20297;-64
2021/01/12 06:08:16;;;;;;;41.78;17.02;;;-3.20;99.60;;;;;;5006124;28;20172;-65
2021/01/12 06:10:46;;;;;;;42.07;17.10;;;-3.10;99.70;;;;;;5002415;28;20201;-65
2021/01/12 06:13:17;;;;;;;41.50;16.87;;;-3.10;99.80;;;;;;5010369;28;20468;-64
2021/01/12 06:15:58;;;;;;;41.00;16.63;;;-3.10;99.90;;;;;;5011483;28;20528;-64
2021/01/12 06:18:31;;;;;;;40.25;17.00;;;-3.10;99.90;;;;;;5005974;28;20531;-64
2021/01/12 06:20:56;;;;;;;46.57;17.40;;;-3.10;99.90;;;;;;5007747;28;20205;-65
2021/01/12 06:23:39;;;;;;;42.93;17.97;;;-3.10;99.90;;;;;;5009250;28;20443;-64
2021/01/12 06:26:07;;;;;;;35.47;16.60;;;-3.00;99.90;;;;;;4995389;28;20439;-64
2021/01/12 06:28:33;;;;;;;31.97;16.33;;;-3.00;99.90;;;;;;4999511;28;20428;-64
2021/01/12 06:31:03;;;;;;;39.50;17.73;;;-3.00;99.90;;;;;;5001811;28;21472;-64
2021/01/12 06:33:31;;;;;;;38.10;17.20;;;-2.90;99.90;;;;;;4999413;28;20434;-66
2021/01/12 06:36:00;;;;;;;39.40;15.43;;;-3.00;99.90;;;;;;4997044;28;22568;-65
2021/01/12 06:38:35;;;;;;;37.73;16.30;;;-2.90;99.90;;;;;;4997392;28;20445;-64
2021/01/12 06:41:05;;;;;;;36.90;16.43;;;-2.90;99.90;;;;;;4997802;28;20517;-63
2021/01/12 06:43:31;;;;;;;33.80;16.27;;;-2.90;99.90;;;;;;5001676;28;20557;-65
2021/01/12 06:45:58;;;;;;;38.67;17.47;;;-2.80;99.90;;;;;;4999583;28;20460;-64
2021/01/12 06:48:26;;;;;;;40.83;17.40;;;-2.80;99.90;;;;;;5002906;28;20475;-65
2021/01/12 06:50:55;;;;;;;37.03;15.17;;;-2.80;99.90;;;;;;5007137;28;20553;-64
2021/01/12 06:53:21;;;;;;;29.60;13.60;;;-2.70;99.90;;;;;;5003552;28;20424;-64
2021/01/12 06:55:47;;;;;;;30.23;12.57;;;-2.70;99.90;;;;;;5005244;28;20436;-64
2021/01/12 06:58:13;;;;;;;32.93;14.73;;;-2.60;99.90;;;;;;5006333;28;20946;-65
2021/01/12 07:00:39;;;;;;;36.30;13.80;;;-2.60;99.90;;;;;;4998085;28;20236;-64
2021/01/12 07:03:08;;;;;;;26.80;13.50;;;-2.50;99.90;;;;;;5002366;28;20227;-64
2021/01/12 07:05:47;;;;;;;29.20;13.57;;;-2.50;99.90;;;;;;5002870;28;20471;-64
2021/01/12 07:08:13;;;;;;;28.33;13.60;;;-2.40;99.90;;;;;;5001086;28;20543;-63
2021/01/12 07:10:46;;;;;;;30.60;13.23;;;-2.40;99.90;;;;;;5002335;28;20448;-63
2021/01/12 07:13:15;;;;;;;34.43;13.03;;;-2.30;99.90;;;;;;5000342;28;20537;-63
2021/01/12 07:15:43;;;;;;;28.67;12.83;;;-2.20;99.90;;;;;;5002630;28;20524;-63
2021/01/12 07:18:09;;;;;;;27.43;13.20;;;-2.20;99.90;;;;;;5000499;28;20431;-63
2021/01/12 07:20:36;;;;;;;26.60;13.63;;;-2.20;99.90;;;;;;5002863;28;20842;-63
2021/01/12 07:23:11;;;;;;;33.83;13.93;;;-2.10;99.90;;;;;;5009582;28;20433;-67
2021/01/12 07:25:42;;;;;;;26.87;12.20;;;-2.10;99.90;;;;;;5005300;28;20543;-64
2021/01/12 07:28:09;;;;;;;28.20;12.80;;;-2.00;99.90;;;;;;5002692;28;20551;-63
2021/01/12 07:30:37;;;;;;;30.37;13.57;;;-2.00;99.90;;;;;;5000268;28;21405;-63
2021/01/12 07:33:05;;;;;;;29.30;13.03;;;-2.00;99.90;;;;;;5002748;28;20495;-64
2021/01/12 07:35:32;;;;;;;29.13;12.77;;;-2.00;99.90;;;;;;5005009;28;20423;-64
2021/01/12 07:38:00;;;;;;;28.67;12.37;;;-2.00;99.90;;;;;;5008971;28;20467;-65
2021/01/12 07:40:29;;;;;;;36.13;14.00;;;-2.00;99.90;;;;;;5004091;28;20546;-64
2021/01/12 07:42:56;;;;;;;27.30;12.57;;;-2.00;99.90;;;;;;4994068;28;20447;-64
2021/01/12 07:45:29;;;;;;;33.10;14.93;;;-2.00;99.90;;;;;;4998517;28;20451;-63
2021/01/12 07:47:57;;;;;;;30.33;13.50;;;-1.90;99.90;;;;;;4993754;28;21017;-64
2021/01/12 07:50:25;;;;;;;31.17;14.60;;;-1.90;99.90;;;;;;4999304;28;20459;-64
2021/01/12 07:52:52;;;;;;;34.50;14.17;;;-2.00;99.90;;;;;;5000860;28;20475;-64
2021/01/12 07:55:17;;;;;;;34.50;14.20;;;-1.90;99.90;;;;;;5006927;28;20529;-64
2021/01/12 07:57:45;;;;;;;35.60;14.60;;;-1.90;99.90;;;;;;5008175;28;20439;-64
2021/01/12 08:00:13;;;;;;;34.50;15.30;;;-1.90;99.90;;;;;;4996097;28;20729;-63
2021/01/12 08:02:44;;;;;;;32.77;14.07;;;-1.90;99.90;;;;;;5004556;28;20968;-64
2021/01/12 08:05:12;;;;;;;32.20;14.53;;;-1.90;99.90;;;;;;5001283;28;20487;-64
2021/01/12 08:07:38;;;;;;;34.23;14.87;;;-1.90;99.90;;;;;;5002718;28;20436;-64
2021/01/12 08:10:05;;;;;;;34.63;15.43;;;-1.90;99.90;;;;;;5008375;28;20518;-64
2021/01/12 08:12:32;;;;;;;37.30;14.80;;;-1.80;99.90;;;;;;5008555;28;21080;-64
2021/01/12 08:15:12;;;;;;;32.50;13.93;;;-1.80;99.90;;;;;;5004199;28;20447;-64
2021/01/12 08:17:49;;;;;;;37.40;15.57;;;-1.80;99.90;;;;;;5007431;28;20441;-65
2021/01/12 08:20:19;;;;;;;33.60;14.27;;;-1.80;99.90;;;;;;4997111;28;20514;-65
2021/01/12 08:22:55;;;;;;;40.80;16.60;;;-1.80;99.90;;;;;;5000796;28;21205;-64
2021/01/12 08:25:22;;;;;;;35.20;16.10;;;-1.80;99.90;;;;;;4996988;28;21231;-64
2021/01/12 08:27:55;;;;;;;36.50;15.60;;;-1.80;99.90;;;;;;5006763;28;20432;-64
2021/01/12 08:30:27;;;;;;;35.90;14.30;;;-1.80;99.90;;;;;;4995630;28;20707;-64
2021/01/12 08:33:24;;;;;;;39.07;15.10;;;-1.80;99.90;;;;;;5005473;28;20812;-64
2021/01/12 08:36:06;;;;;;;32.97;14.97;;;-1.80;99.90;;;;;;5006723;28;20519;-65
2021/01/12 08:38:33;;;;;;;32.27;15.27;;;-1.70;99.90;;;;;;5003301;28;20850;-63
2021/01/12 08:41:04;;;;;;;32.43;14.93;;;-1.70;99.90;;;;;;5009953;28;20546;-64
2021/01/12 08:43:30;;;;;;;33.10;13.93;;;-1.70;99.90;;;;;;5002147;28;20990;-65
2021/01/12 08:46:00;;;;;;;31.30;14.73;;;-1.70;99.90;;;;;;5005204;28;20456;-64
2021/01/12 08:48:26;;;;;;;35.00;15.27;;;-1.60;99.90;;;;;;5016960;28;20453;-65
2021/01/12 08:50:52;;;;;;;35.60;14.67;;;-1.60;99.90;;;;;;5008312;28;20456;-64
2021/01/12 08:53:19;;;;;;;28.47;13.63;;;-1.60;99.90;;;;;;5020740;28;20859;-65
2021/01/12 08:55:48;;;;;;;30.33;14.73;;;-1.50;99.90;;;;;;5001280;28;20194;-65
2021/01/12 08:58:13;;;;;;;28.40;13.60;;;-1.50;99.90;;;;;;4994958;28;20456;-63
2021/01/12 09:00:41;;;;;;;29.60;13.80;;;-1.50;99.90;;;;;;4997942;28;20487;-64
2021/01/12 09:03:12;;;;;;;33.00;15.57;;;-1.50;99.90;;;;;;4999860;28;20247;-64
2021/01/12 09:05:39;;;;;;;33.33;13.73;;;-1.40;99.90;;;;;;4993467;28;20452;-65
2021/01/12 09:08:07;;;;;;;37.43;14.00;;;-1.40;99.90;;;;;;5001965;28;20492;-64
2021/01/12 09:10:34;;;;;;;33.67;14.67;;;-1.40;99.90;;;;;;4996216;28;20506;-64
2021/01/12 09:13:00;;;;;;;29.50;13.37;;;-1.40;99.90;;;;;;4999129;28;21297;-65
2021/01/12 09:15:43;;;;;;;31.60;14.10;;;-1.30;99.90;;;;;;5004940;28;20506;-63
2021/01/12 09:18:17;;;;;;;34.80;14.37;;;-1.30;99.90;;;;;;4992425;28;20993;-65
2021/01/12 09:20:51;;;;;;;30.90;12.43;;;-1.20;99.90;;;;;;5008196;28;20472;-65
2021/01/12 09:23:17;;;;;;;32.73;13.57;;;-1.20;99.90;;;;;;4978814;28;20494;-64
2021/01/12 09:25:54;;;;;;;32.67;13.10;;;-1.20;99.90;;;;;;5005811;28;20459;-65
2021/01/12 09:28:26;;;;;;;36.57;14.13;;;-1.10;99.90;;;;;;5002515;28;20430;-64
2021/01/12 09:31:02;;;;;;;23.57;12.00;;;-1.10;99.90;;;;;;5001985;28;20599;-65
2021/01/12 09:33:28;;;;;;;32.80;13.33;;;-1.10;99.90;;;;;;4991267;28;20431;-65
2021/01/12 09:36:03;;;;;;;33.30;13.80;;;-1.00;99.90;;;;;;5001992;28;20440;-64
2021/01/12 09:38:36;;;;;;;26.90;13.40;;;-1.00;99.90;;;;;;4998166;28;20185;-64
2021/01/12 09:41:01;;;;;;;32.50;15.10;;;-0.90;99.90;;;;;;4996026;28;20472;-63
2021/01/12 09:43:27;;;;;;;38.77;14.60;;;-0.90;99.90;;;;;;4996581;28;20499;-64
2021/01/12 09:45:55;;;;;;;30.50;14.97;;;-0.90;99.90;;;;;;5003371;28;21023;-64
2021/01/12 09:48:21;;;;;;;38.13;16.93;;;-0.90;99.90;;;;;;5003108;28;20202;-65
2021/01/12 09:50:47;;;;;;;35.63;14.33;;;-0.90;99.90;;;;;;4997685;28;20453;-65
2021/01/12 09:53:13;;;;;;;30.87;12.97;;;-0.80;99.90;;;;;;4987293;28;20452;-64
2021/01/12 09:55:38;;;;;;;29.57;14.00;;;-0.80;99.90;;;;;;5005130;28;20679;-59
2021/01/12 09:58:04;;;;;;;23.00;11.20;;;-0.80;99.90;;;;;;4998117;28;20197;-66
2021/01/12 10:00:30;;;;;;;25.97;11.70;;;-0.70;99.90;;;;;;4997618;28;20291;-66
2021/01/12 10:02:58;;;;;;;31.97;15.10;;;-0.70;99.90;;;;;;5001255;28;20636;-64
2021/01/12 10:05:23;;;;;;;28.60;12.90;;;-0.60;99.90;;;;;;4999841;28;20213;-65
2021/01/12 10:07:49;;;;;;;30.93;12.53;;;-0.60;99.90;;;;;;4998017;28;20438;-65
2021/01/12 10:10:15;;;;;;;21.93;10.20;;;-0.60;99.90;;;;;;5000650;28;20688;-65
2021/01/12 10:12:40;;;;;;;19.63;10.03;;;-0.50;99.90;;;;;;5003718;28;20271;-65
2021/01/12 10:15:07;;;;;;;18.00;8.93;;;-0.50;99.90;;;;;;5006864;28;20199;-65
2021/01/12 10:17:33;;;;;;;17.07;8.00;;;-0.40;99.90;;;;;;4998521;28;20219;-65
2021/01/12 10:19:59;;;;;;;17.57;7.90;;;-0.30;99.90;;;;;;5002714;28;20456;-66
2021/01/12 10:22:26;;;;;;;16.80;8.50;;;-0.30;99.90;;;;;;5003195;28;20445;-65
2021/01/12 10:24:52;;;;;;;15.67;8.10;;;-0.20;99.90;;;;;;5003110;28;20255;-65
2021/01/12 10:27:22;;;;;;;16.67;8.93;;;-0.20;99.90;;;;;;5002000;28;20994;-65
2021/01/12 10:29:49;;;;;;;16.13;8.80;;;-0.10;99.90;;;;;;4985972;28;20429;-64
2021/01/12 10:32:15;;;;;;;19.37;8.97;;;-0.10;99.90;;;;;;5004793;28;20469;-65
2021/01/12 10:34:41;;;;;;;16.10;8.50;;;-0.10;99.90;;;;;;5002754;28;20427;-65
2021/01/12 10:37:14;;;;;;;19.80;9.43;;;-0.10;99.90;;;;;;5004237;28;20442;-65
2021/01/12 10:39:41;;;;;;;16.20;8.93;;;-0.10;99.90;;;;;;5016656;28;20237;-65
2021/01/12 10:42:07;;;;;;;16.80;8.87;;;-0.10;99.90;;;;;;5007003;28;20499;-65
2021/01/12 10:44:33;;;;;;;18.43;9.30;;;-0.10;99.90;;;;;;5001172;28;20808;-67
2021/01/12 10:46:59;;;;;;;21.17;9.70;;;-0.10;99.90;;;;;;4999375;28;20974;-65
2021/01/12 10:49:25;;;;;;;19.40;9.00;;;-0.10;99.90;;;;;;5002033;28;20174;-66
2021/01/12 10:52:06;;;;;;;24.40;10.40;;;-0.10;99.90;;;;;;4995707;28;21008;-65
2021/01/12 10:54:35;;;;;;;18.63;10.00;;;-0.20;99.90;;;;;;5002506;28;20173;-66
2021/01/12 10:57:02;;;;;;;19.60;9.53;;;-0.20;99.90;;;;;;4997034;28;20437;-65
2021/01/12 10:59:28;;;;;;;24.60;9.67;;;-0.20;99.90;;;;;;5000140;28;20435;-65
2021/01/12 11:02:00;;;;;;;18.90;9.00;;;-0.20;99.90;;;;;;4994826;28;20499;-64
2021/01/12 11:04:26;;;;;;;18.90;9.67;;;-0.20;99.90;;;;;;4994276;28;20441;-64
2021/01/12 11:06:55;;;;;;;19.73;9.37;;;-0.20;99.90;;;;;;4999939;28;20547;-66
2021/01/12 11:09:22;;;;;;;16.43;8.63;;;-0.30;99.90;;;;;;5003469;28;20441;-64
2021/01/12 11:11:48;;;;;;;20.53;10.37;;;-0.30;99.90;;;;;;4999442;28;20463;-65
2021/01/12 11:14:16;;;;;;;19.40;9.53;;;-0.30;99.90;;;;;;4998933;28;20430;-64
2021/01/12 11:16:42;;;;;;;17.93;9.33;;;-0.30;99.90;;;;;;5002578;28;20441;-64
2021/01/12 11:19:08;;;;;;;17.60;8.80;;;-0.30;99.90;;;;;;5003957;28;20976;-64
2021/01/12 11:21:48;;;;;;;16.67;8.77;;;-0.30;99.90;;;;;;5004033;28;20440;-64
2021/01/12 11:24:25;;;;;;;16.93;9.20;;;-0.30;99.90;;;;;;5000278;28;21483;-64
2021/01/12 11:26:52;;;;;;;18.63;8.57;;;-0.20;99.90;;;;;;5002157;28;20476;-68
2021/01/12 11:29:21;;;;;;;15.80;8.50;;;-0.20;99.90;;;;;;5002250;28;20436;-63
2021/01/12 11:31:50;;;;;;;12.87;7.90;;;-0.20;99.90;;;;;;5002416;28;20468;-65
2021/01/12 11:34:16;;;;;;;17.40;8.17;;;-0.20;99.90;;;;;;5003069;28;21155;-64
2021/01/12 11:36:44;;;;;;;18.03;7.70;;;-0.30;99.90;;;;;;5004152;28;21015;-64
2021/01/12 11:39:12;;;;;;;14.73;7.90;;;-0.20;99.90;;;;;;5004636;28;20920;-63
2021/01/12 11:41:48;;;;;;;12.63;7.00;;;-0.30;99.90;;;;;;5007495;28;20540;-64
2021/01/12 11:44:14;;;;;;;12.23;7.00;;;-0.30;99.90;;;;;;5002391;28;20436;-65
2021/01/12 11:46:41;;;;;;;12.00;6.03;;;-0.30;99.90;;;;;;5003384;28;21192;-66
2021/01/12 11:49:07;;;;;;;9.80;5.93;;;-0.30;99.90;;;;;;5004564;28;20433;-65
2021/01/12 11:51:41;;;;;;;10.73;5.30;;;-0.30;99.90;;;;;;5000714;28;20461;-65
2021/01/12 11:54:08;;;;;;;11.77;6.40;;;-0.30;99.90;;;;;;5005395;28;20196;-65
2021/01/12 11:56:34;;;;;;;13.20;5.87;;;-0.30;99.90;;;;;;5004411;28;20429;-65
2021/01/12 11:59:00;;;;;;;12.60;6.90;;;-0.30;99.90;;;;;;5000552;28;20464;-64
2021/01/12 12:01:26;;;;;;;11.77;6.03;;;-0.30;99.90;;;;;;5001080;28;20540;-64
2021/01/12 12:03:52;;;;;;;13.00;5.67;;;-0.30;99.90;;;;;;4998149;28;20822;-65
2021/01/12 12:06:18;;;;;;;13.77;7.20;;;-0.30;99.90;;;;;;5003053;28;20518;-65
2021/01/12 12:08:44;;;;;;;8.50;5.40;;;-0.30;99.90;;;;;;5003421;28;20615;-65
2021/01/12 12:11:09;;;;;;;13.93;6.70;;;-0.30;99.90;;;;;;5003748;28;20468;-64
2021/01/12 12:13:41;;;;;;;12.37;6.93;;;-0.30;99.90;;;;;;5000883;28;20193;-65
2021/01/12 12:16:19;;;;;;;14.37;6.97;;;-0.30;99.90;;;;;;5005583;28;20278;-66
2021/01/12 12:18:46;;;;;;;11.07;5.63;;;-0.30;99.90;;;;;;5008695;28;21044;-64
2021/01/12 12:21:15;;;;;;;9.80;5.73;;;-0.30;99.90;;;;;;5003525;28;20478;-64
2021/01/12 12:23:42;;;;;;;11.13;5.90;;;-0.30;99.90;;;;;;5003689;28;21092;-65
2021/01/12 12:26:13;;;;;;;11.70;6.27;;;-0.30;99.90;;;;;;5004597;28;21092;-65
2021/01/12 12:28:39;;;;;;;9.17;6.20;;;-0.30;99.90;;;;;;5003538;28;20494;-65
2021/01/12 12:31:05;;;;;;;9.20;5.57;;;-0.20;99.90;;;;;;4983553;28;20461;-63
2021/01/12 12:33:32;;;;;;;12.53;5.90;;;-0.20;99.90;;;;;;5006566;28;20428;-65